createdAt,value
2023-03-06T04:43:17.645Z,72.34
2023-03-06T04:46:20.924Z,72.34
2023-03-06T04:49:42.210Z,72.17
2023-03-06T04:52:45.455Z,72.17
2023-03-06T04:55:48.070Z,74.50
2023-03-06T04:58:51.170Z,75.45
2023-03-06T05:01:53.778Z,75.56
2023-03-06T05:04:56.618Z,75.96
2023-03-06T05:07:59.038Z,76.46
2023-03-06T05:11:02.597Z,78.10
2023-03-06T05:14:05.387Z,76.83
2023-03-06T05:17:08.034Z,77.77
2023-03-06T05:20:12.158Z,78.77
2023-03-06T05:23:14.802Z,78.93
2023-03-06T05:26:17.270Z,78.43
2023-03-06T05:29:20.373Z,77.47
2023-03-06T05:32:23.798Z,78.42
2023-03-06T05:35:26.683Z,78.49
2023-03-06T05:38:29.573Z,78.75
2023-03-06T05:41:32.704Z,82.80
2023-03-06T05:44:36.182Z,82.12
2023-03-06T05:47:38.964Z,81.76
2023-03-06T05:50:41.447Z,83.84
2023-03-06T05:53:44.177Z,83.63
2023-03-06T05:56:46.654Z,84.20
2023-03-06T05:59:50.083Z,83.41
2023-03-06T06:02:55.783Z,82.78
2023-03-06T06:05:58.591Z,82.96
2023-03-06T06:09:03.724Z,81.63
2023-03-06T06:12:07.056Z,80.78
2023-03-06T06:15:09.881Z,81.13
2023-03-06T06:18:12.609Z,79.60
2023-03-06T06:21:15.030Z,80.50
2023-03-06T06:24:20.453Z,78.99
2023-03-06T06:27:22.769Z,78.73
2023-03-06T06:30:25.460Z,77.95
2023-03-06T06:33:28.013Z,77.39
2023-03-06T06:36:32.703Z,77.78
2023-03-06T06:39:35.066Z,77.41
2023-03-06T06:42:40.128Z,76.30
2023-03-06T06:45:44.210Z,77.63
2023-03-06T06:48:52.433Z,76.38
2023-03-06T06:51:54.792Z,77.31
2023-03-06T06:54:57.700Z,77.33
2023-03-06T06:58:00.180Z,77.37
2023-03-06T07:01:08.060Z,77.84
2023-03-06T07:04:14.697Z,77.05
2023-03-06T07:07:17.376Z,75.23
2023-03-06T07:10:21.042Z,75.24
2023-03-06T07:13:23.908Z,75.44
2023-03-06T07:16:26.944Z,75.35
2023-03-06T07:19:29.643Z,76.73
2023-03-06T07:22:38.706Z,76.20
2023-03-06T07:25:51.204Z,74.44
2023-03-06T07:28:54.324Z,74.77
2023-03-06T07:31:57.034Z,74.58
2023-03-06T07:35:18.710Z,75.35
2023-03-06T07:38:22.242Z,76.92
2023-03-06T07:41:24.934Z,77.85
2023-03-06T07:44:28.127Z,79.94
2023-03-06T07:47:30.480Z,80.24
2023-03-06T07:50:33.309Z,80.31
2023-03-06T07:53:35.696Z,80.37
2023-03-06T07:56:38.405Z,80.39
2023-03-06T07:59:40.966Z,83.30
2023-03-06T08:02:44.511Z,83.94
2023-03-06T08:05:47.412Z,82.64
2023-03-06T08:08:51.239Z,82.14
2023-03-06T08:11:53.886Z,85.03
2023-03-06T08:14:56.256Z,84.92
2023-03-06T08:17:58.973Z,85.12
2023-03-06T08:21:02.900Z,87.33
2023-03-06T08:24:07.427Z,90.10
2023-03-06T08:27:09.932Z,87.18
2023-03-06T08:30:13.121Z,86.93
2023-03-06T08:33:15.525Z,83.20
2023-03-06T08:36:18.184Z,82.73
2023-03-06T08:39:21.271Z,82.92
2023-03-06T08:42:23.896Z,81.15
2023-03-06T08:45:26.329Z,78.98
2023-03-06T08:48:29.508Z,77.59
2023-03-06T08:51:32.139Z,79.38
2023-03-06T08:54:36.320Z,75.46
2023-03-06T08:57:38.620Z,74.77
2023-03-06T09:00:41.615Z,69.52
2023-03-06T09:03:44.422Z,69.24
2023-03-06T09:06:47.118Z,68.69
2023-03-06T09:09:49.626Z,69.63
2023-03-06T09:12:55.099Z,67.30
2023-03-06T09:15:57.760Z,65.26
2023-03-06T09:19:00.514Z,67.13
2023-03-06T09:22:03.108Z,67.74
2023-03-06T09:25:06.412Z,68.80
2023-03-06T09:28:11.653Z,67.84
2023-03-06T09:31:17.426Z,67.45
2023-03-06T09:34:20.435Z,64.72
2023-03-06T09:37:23.387Z,64.98
2023-03-06T09:40:42.488Z,62.55
2023-03-06T09:43:48.160Z,61.97
2023-03-06T09:47:09.121Z,60.75
2023-03-06T09:50:36.034Z,61.89
2023-03-06T09:53:47.986Z,61.12
2023-03-06T09:56:50.844Z,62.32
2023-03-06T09:59:58.677Z,61.72
2023-03-06T10:03:10.201Z,60.13
2023-03-06T10:06:21.039Z,59.63
2023-03-06T10:09:29.338Z,59.28
2023-03-06T10:12:42.562Z,59.79
2023-03-06T10:15:47.248Z,59.77
2023-03-06T10:18:50.676Z,59.94
2023-03-06T10:22:14.636Z,59.36
2023-03-06T10:25:27.980Z,59.03
2023-03-06T10:28:39.379Z,61.39
2023-03-06T10:31:52.064Z,62.90
2023-03-06T10:34:59.237Z,64.35
2023-03-06T10:38:26.268Z,66.12
2023-03-06T10:41:31.191Z,65.90
2023-03-06T10:44:34.074Z,66.60
2023-03-06T10:47:38.065Z,64.97
2023-03-06T10:50:40.776Z,64.80
2023-03-06T10:54:18.040Z,63.79
2023-03-06T10:57:28.131Z,62.38
2023-03-06T11:00:33.702Z,62.76
2023-03-06T11:03:37.296Z,62.35
2023-03-06T11:06:39.754Z,61.91
2023-03-06T11:10:01.065Z,62.05
2023-03-06T11:13:22.459Z,61.17
2023-03-06T11:16:33.087Z,61.67
2023-03-06T11:19:35.995Z,60.67
2023-03-06T11:22:40.442Z,61.02
2023-03-06T11:25:53.099Z,60.78
2023-03-06T11:29:04.304Z,60.08
2023-03-06T11:32:10.800Z,59.14
2023-03-06T11:35:20.981Z,59.38
2023-03-06T11:38:46.169Z,60.45
2023-03-06T11:41:57.491Z,60.70
2023-03-06T11:45:00.780Z,61.32
2023-03-06T11:48:13.973Z,60.65
2023-03-06T11:51:25.846Z,59.22
2023-03-06T11:54:28.646Z,59.66
2023-03-06T11:58:09.189Z,59.81
2023-03-06T12:01:24.534Z,60.64
2023-03-06T12:05:06.822Z,61.23
2023-03-06T12:08:31.433Z,61.19
2023-03-06T12:11:43.098Z,61.60
2023-03-06T12:15:04.185Z,60.71
2023-03-06T12:18:34.175Z,60.45
2023-03-06T12:22:17.820Z,59.21
2023-03-06T12:25:30.976Z,59.15
2023-03-06T12:28:40.988Z,58.14
2023-03-06T12:32:06.840Z,57.65
2023-03-06T12:35:47.550Z,57.57
2023-03-06T12:39:24.803Z,58.07
2023-03-06T12:43:10.204Z,57.50
2023-03-06T12:46:16.614Z,57.65
2023-03-06T12:49:33.003Z,59.22
2023-03-06T12:52:36.437Z,60.03
2023-03-06T12:55:42.516Z,60.41
2023-03-06T12:58:54.000Z,60.98
2023-03-06T13:02:21.060Z,61.67
2023-03-06T13:06:11.769Z,62.32
2023-03-06T13:09:22.603Z,64.21
2023-03-06T13:12:57.728Z,65.96
2023-03-06T13:16:18.685Z,67.59
2023-03-06T13:19:26.532Z,67.78
2023-03-06T13:22:30.139Z,67.82
2023-03-06T13:25:33.321Z,70.25
2023-03-06T13:28:49.951Z,71.36
2023-03-06T13:31:52.573Z,72.10
2023-03-06T13:34:55.032Z,73.62
2023-03-06T13:38:01.134Z,74.80
2023-03-06T13:41:22.492Z,75.64
2023-03-06T13:44:25.368Z,75.97
2023-03-06T13:47:39.738Z,76.28
2023-03-06T13:50:52.748Z,76.28
2023-03-06T13:54:45.832Z,77.48
2023-03-06T13:57:51.113Z,77.87
2023-03-06T14:00:59.533Z,79.31
2023-03-06T14:04:02.194Z,79.72
2023-03-06T14:07:28.532Z,80.92
2023-03-06T14:10:34.460Z,81.96
2023-03-06T14:13:47.853Z,82.57
2023-03-06T14:16:55.482Z,83.68
2023-03-06T14:20:23.377Z,84.42
2023-03-06T14:23:26.026Z,84.80
2023-03-06T14:26:41.381Z,84.20
2023-03-06T14:29:46.464Z,84.44
2023-03-06T14:32:51.817Z,85.52
2023-03-06T14:35:56.713Z,86.21
2023-03-06T14:39:04.820Z,86.26
2023-03-06T14:42:21.137Z,87.31
2023-03-06T14:45:24.876Z,87.78
2023-03-06T14:48:49.435Z,88.40
2023-03-06T14:52:00.485Z,88.19
2023-03-06T14:55:08.955Z,89.01
2023-03-06T14:58:18.784Z,89.56
2023-03-06T15:01:38.205Z,89.94
2023-03-06T15:04:55.098Z,90.14
2023-03-06T15:08:07.236Z,90.64
2023-03-06T15:11:09.980Z,90.39
2023-03-06T15:14:18.694Z,90.77
2023-03-06T15:17:23.897Z,90.55
2023-03-06T15:20:41.307Z,90.90
2023-03-06T15:23:49.572Z,91.37
2023-03-06T15:26:55.355Z,91.69
2023-03-06T15:30:36.572Z,93.25
2023-03-06T15:33:39.339Z,92.19
2023-03-06T15:36:48.947Z,93.69
2023-03-06T15:40:09.406Z,93.34
2023-03-06T15:43:11.923Z,93.25
2023-03-06T15:46:14.793Z,93.08
2023-03-06T15:49:18.467Z,93.55
2023-03-06T15:52:22.381Z,94.06
2023-03-06T15:55:26.031Z,94.45
2023-03-06T15:58:31.665Z,95.49
2023-03-06T16:01:36.180Z,95.05
2023-03-06T16:04:39.993Z,95.56
2023-03-06T16:07:42.761Z,95.13
2023-03-06T16:10:45.745Z,95.61
2023-03-06T16:13:48.159Z,96.49
2023-03-06T16:16:53.555Z,96.97
2023-03-06T16:19:56.151Z,96.79
2023-03-06T16:22:59.313Z,96.80
2023-03-06T16:26:01.717Z,96.70
2023-03-06T16:29:05.195Z,98.47
2023-03-06T16:32:10.877Z,98.96
2023-03-06T16:35:14.373Z,99.98
2023-03-06T16:38:16.793Z,99.25
2023-03-06T16:41:20.317Z,99.94
2023-03-06T16:44:22.777Z,100.00
2023-03-06T16:47:25.438Z,100.00
2023-03-06T16:50:41.470Z,100.00
